Adner, Louisiana
Current Conditions -  °F | °C
As of 8:07 AM on Friday 19 Dec 2014 (Local Time) from KDTN Reporting Station
Light Rain Light Rain  
Wind Chill: 45°   Ceiling: 2800
Heat Index: 47°   Visibility: 6mi
Dew Point: 44°   Wind: 5mph
Humidity: 90%   Direction: 20°NNE
Pressure: 30.18"   Gusts: NA
Location:  32.5391°N, 93.5257°W
Report Text: KDTN 191407Z 02004KT 6SM -RA BR SCT012 OVC028 08/07 A3018 RMK AO2 TSE06 P0000 T00830067
Loading
Personal Weather Stations






























Interactive Weather Map New forecast layout! Learn more

10-Day Weather Forecast

Advertisements
Track Severe Weather on mobile